Terminal Aerodrome Forecast
Issued by NWS

Home | Current Version | Previous Version | Text Only | Print | Product List | Glossary On
Versions: 1 2 3 4 5 6 7 8 9 10 11 12 13 14 15 16 17 18 19 20 21 22 23 24 25 26 27 28 29 30 31 32 33 34 35 36 37 38
000
FTUS45 KBOI 272336
TAFMYL
TAF
KMYL 272336Z 2800/2824 30005KT P6SM VCSH SCT040 OVC060
      TEMPO 2800/2801 P6SM -SHRA BKN030
     FM280100 30008KT P6SM SCT040
     FM280900 VRB03KT 1/2SM FZFG BKN005
     FM281600 VRB04KT P6SM FEW005 SCT100=

USA.gov is the U.S. government's official web portal to all federal, state and local government web resources and services.